createdAt,value
2019-02-22T00:00:57.602Z,68.38
2019-02-22T00:01:57.582Z,69.04
2019-02-22T00:02:57.567Z,68.57
2019-02-22T00:03:57.547Z,68.85
2019-02-22T00:04:57.536Z,69.42
2019-02-22T00:05:57.520Z,69.61
2019-02-22T00:06:57.504Z,68.85
2019-02-22T00:07:57.483Z,68.00
2019-02-22T00:08:57.475Z,67.81
2019-02-22T00:09:57.457Z,67.90
2019-02-22T00:10:57.443Z,67.81
2019-02-22T00:11:57.421Z,68.00
2019-02-22T00:12:57.406Z,68.48
2019-02-22T00:13:57.393Z,68.19
2019-02-22T00:14:57.373Z,68.57
2019-02-22T00:15:57.365Z,68.95
2019-02-22T00:16:57.350Z,68.85
2019-02-22T00:17:57.326Z,69.33
2019-02-22T00:18:57.309Z,69.33
2019-02-22T00:19:57.299Z,69.13
2019-02-22T00:20:57.281Z,69.04
2019-02-22T00:21:57.265Z,68.95
2019-02-22T00:22:57.252Z,69.04
2019-02-22T00:23:57.233Z,68.95
2019-02-22T00:24:57.220Z,68.95
2019-02-22T00:25:57.199Z,69.33
2019-02-22T00:26:57.185Z,69.80
2019-02-22T00:27:57.166Z,70.03
2019-02-22T00:28:57.158Z,70.31
2019-02-22T00:29:57.138Z,70.12
2019-02-22T00:30:57.122Z,70.03
2019-02-22T00:31:57.103Z,70.03
2019-02-22T00:32:57.089Z,69.84
2019-02-22T00:33:57.075Z,69.36
2019-02-22T00:34:57.132Z,69.55
2019-02-22T00:35:57.094Z,69.65
2019-02-22T00:36:57.047Z,69.84
2019-02-22T00:37:57.020Z,70.40
2019-02-22T00:38:57.004Z,70.69
2019-02-22T00:39:56.981Z,70.03
2019-02-22T00:40:56.965Z,70.03
2019-02-22T00:41:56.951Z,70.12
2019-02-22T00:42:56.935Z,70.59
2019-02-22T00:43:56.920Z,69.55
2019-02-22T00:44:56.898Z,69.46
2019-02-22T00:45:56.885Z,68.98
2019-02-22T00:46:56.872Z,68.98
2019-02-22T00:47:56.849Z,68.89
2019-02-22T00:48:56.845Z,68.79
2019-02-22T00:49:56.822Z,68.79
2019-02-22T00:50:56.806Z,68.98
2019-02-22T00:51:56.796Z,68.98
2019-02-22T00:52:56.775Z,68.79
2019-02-22T00:53:56.766Z,68.89
2019-02-22T00:54:56.743Z,69.55
2019-02-22T00:55:56.731Z,69.55
2019-02-22T00:56:56.726Z,69.74
2019-02-22T00:57:56.701Z,69.93
2019-02-22T00:58:56.691Z,69.46
2019-02-22T00:59:56.668Z,69.65
2019-02-22T01:00:56.652Z,69.84
2019-02-22T01:01:56.633Z,69.84
2019-02-22T01:02:56.629Z,69.55
2019-02-22T01:03:56.607Z,69.46
2019-02-22T01:04:56.593Z,70.40
2019-02-22T01:05:56.579Z,69.74
2019-02-22T01:06:56.554Z,69.93
2019-02-22T01:07:56.541Z,69.55
2019-02-22T01:08:56.529Z,69.55
2019-02-22T01:09:56.519Z,69.74
2019-02-22T01:10:56.504Z,70.31
2019-02-22T01:11:56.479Z,70.40
2019-02-22T01:12:56.468Z,69.84
2019-02-22T01:13:56.452Z,70.21
2019-02-22T01:14:56.433Z,70.03
2019-02-22T01:15:56.423Z,70.21
2019-02-22T01:16:57.295Z,69.36
2019-02-22T01:17:56.393Z,70.31
2019-02-22T01:18:56.373Z,70.12
2019-02-22T01:19:56.357Z,70.03
2019-02-22T01:20:56.343Z,70.40
2019-02-22T01:21:56.332Z,70.21
2019-02-22T01:22:56.305Z,70.40
2019-02-22T01:23:56.295Z,70.03
2019-02-22T01:24:56.279Z,70.31
2019-02-22T01:25:56.265Z,70.40
2019-02-22T01:26:56.245Z,70.69
2019-02-22T01:27:56.233Z,70.12
2019-02-22T01:28:56.216Z,70.40
2019-02-22T01:29:56.200Z,69.93
2019-02-22T01:30:56.188Z,70.12
2019-02-22T01:31:56.175Z,70.21
2019-02-22T01:32:56.152Z,70.50
2019-02-22T01:33:56.146Z,69.74
2019-02-22T01:34:56.128Z,69.65
2019-02-22T01:35:56.105Z,69.74
2019-02-22T01:36:56.089Z,69.27
2019-02-22T01:37:56.075Z,69.17
2019-02-22T01:38:56.061Z,69.36
2019-02-22T01:39:56.048Z,69.46
2019-02-22T01:40:56.034Z,69.49
2019-02-22T01:41:56.021Z,69.65
2019-02-22T01:42:56.001Z,69.59
2019-02-22T01:43:56.005Z,69.59
2019-02-22T01:44:55.970Z,69.59
2019-02-22T01:45:55.952Z,68.92
2019-02-22T01:46:55.936Z,69.11
2019-02-22T01:47:55.920Z,69.21
2019-02-22T01:48:55.910Z,69.11
2019-02-22T01:49:55.892Z,69.02
2019-02-22T01:50:55.879Z,69.21
2019-02-22T01:51:55.870Z,68.64
2019-02-22T01:52:55.869Z,69.11
2019-02-22T01:53:55.833Z,69.02
2019-02-22T01:54:55.817Z,69.40
2019-02-22T01:55:55.802Z,69.21
2019-02-22T01:56:55.787Z,69.30
2019-02-22T01:57:55.767Z,69.59
2019-02-22T01:58:55.760Z,69.78
2019-02-22T01:59:55.737Z,69.21
2019-02-22T02:00:55.723Z,69.02
2019-02-22T02:01:55.701Z,68.83
2019-02-22T02:02:55.692Z,69.21
2019-02-22T02:03:55.678Z,69.21
2019-02-22T02:04:55.660Z,68.83
2019-02-22T02:05:55.647Z,68.83
2019-02-22T02:06:55.631Z,69.11
2019-02-22T02:07:55.622Z,69.21
2019-02-22T02:08:55.603Z,69.11
2019-02-22T02:09:55.586Z,69.40
2019-02-22T02:10:55.569Z,69.59
2019-02-22T02:11:55.557Z,69.96
2019-02-22T02:12:55.540Z,69.49
2019-02-22T02:13:55.526Z,69.49
2019-02-22T02:14:55.523Z,70.15
2019-02-22T02:15:55.507Z,69.59
2019-02-22T02:16:55.478Z,70.40
2019-02-22T02:17:55.463Z,69.49
2019-02-22T02:18:55.451Z,69.27
2019-02-22T02:19:55.434Z,70.31
2019-02-22T02:20:55.421Z,70.03
2019-02-22T02:21:55.402Z,69.84
2019-02-22T02:22:55.387Z,70.12
2019-02-22T02:23:55.370Z,70.12
2019-02-22T02:24:55.354Z,70.15
2019-02-22T02:25:55.341Z,70.12
2019-02-22T02:26:55.321Z,69.27
2019-02-22T02:27:55.309Z,69.78
2019-02-22T02:28:55.298Z,69.40
2019-02-22T02:29:55.284Z,69.49
2019-02-22T02:30:55.263Z,69.87
2019-02-22T02:31:55.256Z,69.59
2019-02-22T02:32:55.234Z,68.89
2019-02-22T02:33:55.218Z,68.89
2019-02-22T02:34:55.206Z,68.60
2019-02-22T02:35:55.187Z,68.89
2019-02-22T02:36:55.174Z,69.36
2019-02-22T02:37:55.154Z,69.17
2019-02-22T02:38:55.149Z,70.03
2019-02-22T02:39:55.131Z,69.74
2019-02-22T02:41:06.823Z,69.36
2019-02-22T02:41:55.093Z,69.55
2019-02-22T02:42:55.089Z,70.59
2019-02-22T02:43:55.077Z,70.50
2019-02-22T02:44:55.053Z,70.31
2019-02-22T02:45:55.036Z,69.84
2019-02-22T02:46:55.019Z,70.03
2019-02-22T02:47:55.004Z,70.40
2019-02-22T02:48:54.993Z,69.65
2019-02-22T02:49:54.981Z,69.65
2019-02-22T02:50:54.960Z,69.84
2019-02-22T02:51:54.946Z,69.93
2019-02-22T02:52:54.929Z,70.69
2019-02-22T02:53:54.914Z,69.93
2019-02-22T02:54:54.896Z,69.46
2019-02-22T02:55:54.881Z,69.65
2019-02-22T02:56:54.874Z,69.55
2019-02-22T02:57:54.868Z,69.84
2019-02-22T02:58:54.839Z,69.84
2019-02-22T02:59:54.825Z,69.93
2019-02-22T03:00:54.803Z,70.03
2019-02-22T03:01:54.791Z,70.03
2019-02-22T03:02:54.772Z,69.93
2019-02-22T03:03:54.757Z,69.74
2019-02-22T03:04:54.788Z,70.21
2019-02-22T03:05:54.725Z,70.50
2019-02-22T03:06:54.715Z,70.78
2019-02-22T03:07:54.700Z,70.50
2019-02-22T03:08:54.685Z,70.69
2019-02-22T03:09:54.671Z,70.50
2019-02-22T03:10:54.654Z,70.50
2019-02-22T03:11:54.643Z,71.17
2019-02-22T03:12:54.624Z,70.88
2019-02-22T03:13:54.614Z,70.98
2019-02-22T03:14:54.588Z,70.59
2019-02-22T03:15:54.582Z,70.59
2019-02-22T03:16:54.560Z,70.40
2019-02-22T03:17:54.553Z,70.59
2019-02-22T03:18:54.532Z,70.69
2019-02-22T03:19:54.523Z,70.59
2019-02-22T03:20:54.504Z,70.59
2019-02-22T03:21:54.502Z,70.78
2019-02-22T03:22:54.476Z,70.69
2019-02-22T03:23:54.458Z,70.50
2019-02-22T03:24:54.442Z,71.17
2019-02-22T03:25:54.427Z,71.07
2019-02-22T03:26:54.407Z,71.17
2019-02-22T03:27:54.392Z,70.88
2019-02-22T03:28:54.380Z,70.78
2019-02-22T03:29:54.375Z,70.78
2019-02-22T03:30:54.355Z,70.69
2019-02-22T03:31:54.337Z,70.59
2019-02-22T03:32:54.321Z,70.50
2019-02-22T03:33:54.352Z,70.31
2019-02-22T03:34:54.288Z,70.03
2019-02-22T03:35:54.272Z,70.31
2019-02-22T03:36:54.258Z,70.03
2019-02-22T03:37:54.241Z,70.03
2019-02-22T03:38:54.223Z,70.59
2019-02-22T03:39:54.218Z,70.88
2019-02-22T03:40:54.196Z,70.69
2019-02-22T03:41:54.186Z,71.17
2019-02-22T03:42:54.158Z,71.36
2019-02-22T03:43:54.153Z,71.07
2019-02-22T03:44:54.138Z,71.07
2019-02-22T03:45:54.121Z,70.98
2019-02-22T03:46:54.105Z,71.07
2019-02-22T03:47:54.088Z,71.07
2019-02-22T03:48:54.076Z,71.07
2019-02-22T03:49:54.057Z,71.07
2019-02-22T03:50:54.042Z,71.07
2019-02-22T03:51:54.030Z,71.17
2019-02-22T03:52:54.011Z,71.07
2019-02-22T03:53:53.999Z,70.98
2019-02-22T03:54:53.981Z,70.50
2019-02-22T03:55:53.971Z,70.98
2019-02-22T03:56:53.953Z,70.69
2019-02-22T03:57:53.933Z,69.93
2019-02-22T03:58:53.924Z,70.21
2019-02-22T03:59:53.921Z,70.31
2019-02-22T04:00:53.896Z,70.78
2019-02-22T04:01:53.871Z,71.26
2019-02-22T04:02:53.869Z,71.64
2019-02-22T04:03:53.848Z,71.55
2019-02-22T04:04:53.829Z,72.40
2019-02-22T04:05:53.819Z,72.30
2019-02-22T04:06:53.801Z,72.49
2019-02-22T04:07:53.782Z,72.49
2019-02-22T04:08:53.764Z,72.30
2019-02-22T04:09:53.751Z,72.21
2019-02-22T04:10:53.740Z,72.40
2019-02-22T04:11:53.769Z,72.02
2019-02-22T04:12:53.704Z,71.45
2019-02-22T04:13:53.698Z,71.26
2019-02-22T04:14:53.680Z,70.98
2019-02-22T04:15:53.661Z,71.36
2019-02-22T04:16:53.649Z,71.17
2019-02-22T04:17:53.635Z,71.26
2019-02-22T04:18:53.617Z,71.17
2019-02-22T04:19:53.598Z,71.26
2019-02-22T04:20:53.590Z,71.26
2019-02-22T04:21:53.574Z,70.98
2019-02-22T04:22:53.557Z,71.17
2019-02-22T04:23:53.550Z,70.50
2019-02-22T04:24:53.521Z,70.69
2019-02-22T04:25:53.509Z,70.98
2019-02-22T04:26:53.504Z,70.98
2019-02-22T04:27:53.476Z,70.98
2019-02-22T04:28:53.465Z,70.88
2019-02-22T04:29:53.443Z,70.50
2019-02-22T04:30:53.435Z,70.98
2019-02-22T04:31:53.413Z,70.98
2019-02-22T04:32:53.403Z,69.36
2019-02-22T04:33:53.385Z,69.27
2019-02-22T04:34:53.370Z,69.27
2019-02-22T04:35:53.359Z,69.84
2019-02-22T04:36:53.340Z,70.40
2019-02-22T04:37:53.327Z,69.84
2019-02-22T04:38:53.311Z,70.31
2019-02-22T04:39:53.299Z,70.40
2019-02-22T04:40:53.286Z,70.40
2019-02-22T04:41:58.074Z,71.17
2019-02-22T04:42:53.246Z,70.78
2019-02-22T04:43:53.232Z,71.64
2019-02-22T04:44:53.217Z,71.55
2019-02-22T04:45:53.202Z,71.36
2019-02-22T04:46:53.180Z,71.92
2019-02-22T04:47:53.172Z,71.45
2019-02-22T04:48:53.157Z,71.45
2019-02-22T04:49:53.137Z,71.45
2019-02-22T04:50:53.129Z,71.26
2019-02-22T04:51:53.105Z,71.73
2019-02-22T04:52:53.091Z,71.45
2019-02-22T04:53:53.078Z,72.02
2019-02-22T04:54:53.064Z,71.92
2019-02-22T04:55:53.045Z,72.21
2019-02-22T04:56:53.039Z,71.92
2019-02-22T04:57:53.041Z,71.26
2019-02-22T04:58:53.000Z,71.83
2019-02-22T04:59:52.985Z,72.30
2019-02-22T05:00:52.967Z,72.02
2019-02-22T05:01:52.957Z,71.92
2019-02-22T05:02:52.937Z,71.92
2019-02-22T05:03:52.930Z,72.30
2019-02-22T05:04:52.907Z,72.02
2019-02-22T05:05:52.895Z,71.92
2019-02-22T05:06:52.877Z,72.78
2019-02-22T05:07:52.920Z,72.59
2019-02-22T05:08:52.849Z,72.78
2019-02-22T05:09:52.830Z,72.21
2019-02-22T05:11:07.424Z,72.21
2019-02-22T05:11:52.796Z,72.40
2019-02-22T05:12:52.792Z,73.16
2019-02-22T05:13:52.776Z,72.97
2019-02-22T05:14:52.758Z,72.78
2019-02-22T05:15:52.742Z,73.16
2019-02-22T05:16:52.727Z,72.78
2019-02-22T05:17:52.706Z,72.97
2019-02-22T05:18:52.698Z,73.07
2019-02-22T05:19:52.686Z,72.68
2019-02-22T05:20:52.662Z,72.49
2019-02-22T05:21:52.646Z,72.78
2019-02-22T05:23:03.441Z,72.78
2019-02-22T05:23:52.615Z,72.49
2019-02-22T05:24:52.612Z,72.11
2019-02-22T05:25:52.590Z,72.49
2019-02-22T05:26:52.572Z,72.49
2019-02-22T05:27:52.558Z,72.21
2019-02-22T05:28:52.543Z,72.02
2019-02-22T05:29:52.529Z,72.59
2019-02-22T05:30:52.527Z,72.88
2019-02-22T05:31:52.510Z,72.97
2019-02-22T05:32:52.475Z,72.88
2019-02-22T05:33:52.461Z,72.59
2019-02-22T05:34:52.447Z,72.78
2019-02-22T05:35:52.430Z,72.02
2019-02-22T05:36:52.418Z,72.21
2019-02-22T05:37:52.403Z,72.78
2019-02-22T05:38:52.387Z,72.68
2019-02-22T05:39:52.368Z,72.68
2019-02-22T05:40:52.355Z,72.59
2019-02-22T05:41:52.344Z,72.59
2019-02-22T05:42:52.325Z,72.88
2019-02-22T05:43:52.317Z,72.97
2019-02-22T05:44:52.296Z,73.16
2019-02-22T05:45:52.285Z,73.16
2019-02-22T05:47:00.025Z,73.44
2019-02-22T05:47:52.248Z,73.25
2019-02-22T05:48:52.237Z,73.35
2019-02-22T05:49:52.221Z,73.07
2019-02-22T05:50:52.203Z,73.35
2019-02-22T05:51:52.188Z,73.54
2019-02-22T05:52:52.273Z,72.68
2019-02-22T05:53:52.155Z,72.40
2019-02-22T05:54:52.143Z,72.30
2019-02-22T05:55:52.126Z,71.92
2019-02-22T05:56:54.859Z,72.59
2019-02-22T05:57:52.101Z,72.97
2019-02-22T05:58:52.079Z,73.44
2019-02-22T05:59:52.064Z,73.44
2019-02-22T06:00:52.063Z,73.07
2019-02-22T06:01:52.034Z,73.54
2019-02-22T06:02:52.018Z,73.54
2019-02-22T06:03:52.009Z,73.92
2019-02-22T06:04:51.982Z,74.39
2019-02-22T06:05:51.974Z,73.92
2019-02-22T06:06:51.958Z,73.82
2019-02-22T06:07:51.946Z,74.11
2019-02-22T06:08:51.930Z,74.11
2019-02-22T06:09:51.915Z,73.63
2019-02-22T06:10:51.894Z,73.25
2019-02-22T06:11:51.890Z,73.54
2019-02-22T06:12:51.862Z,72.88
2019-02-22T06:13:51.854Z,73.54
2019-02-22T06:14:51.831Z,73.16
2019-02-22T06:15:51.821Z,73.16
2019-02-22T06:16:51.801Z,73.16
2019-02-22T06:17:51.794Z,73.54
2019-02-22T06:18:51.772Z,73.54
2019-02-22T06:19:51.760Z,73.35
2019-02-22T06:20:51.747Z,73.35
2019-02-22T06:21:51.724Z,73.16
2019-02-22T06:22:51.713Z,73.07
2019-02-22T06:23:51.699Z,73.16
2019-02-22T06:24:51.681Z,73.54
2019-02-22T06:25:51.667Z,73.16
2019-02-22T06:26:51.650Z,73.44
2019-02-22T06:27:51.636Z,73.16
2019-02-22T06:28:51.616Z,73.07
2019-02-22T06:29:51.601Z,73.54
2019-02-22T06:30:51.590Z,73.54
2019-02-22T06:31:51.573Z,73.44
2019-02-22T06:32:51.554Z,72.88
2019-02-22T06:33:51.543Z,72.68
2019-02-22T06:34:51.525Z,72.21
2019-02-22T06:35:51.525Z,72.21
2019-02-22T06:37:01.357Z,72.21
2019-02-22T06:37:51.481Z,72.59
2019-02-22T06:38:51.463Z,72.59
2019-02-22T06:39:51.453Z,72.59
2019-02-22T06:40:51.438Z,73.07
2019-02-22T06:41:51.415Z,73.44
2019-02-22T06:42:51.403Z,73.25
2019-02-22T06:43:51.392Z,73.54
2019-02-22T06:44:51.369Z,72.78
2019-02-22T06:45:51.358Z,71.92
2019-02-22T06:46:51.341Z,71.92
2019-02-22T06:47:51.330Z,72.59
2019-02-22T06:48:51.311Z,71.92
2019-02-22T06:49:51.297Z,72.30
2019-02-22T06:50:51.278Z,72.21
2019-02-22T06:51:51.268Z,72.30
2019-02-22T06:52:51.250Z,72.49
2019-02-22T06:53:51.238Z,72.68
2019-02-22T06:54:51.221Z,72.78
2019-02-22T06:55:51.207Z,72.97
2019-02-22T06:56:51.194Z,72.97
2019-02-22T06:57:51.176Z,73.54
2019-02-22T06:58:51.182Z,73.25
2019-02-22T06:59:51.152Z,73.16
2019-02-22T07:00:51.134Z,72.11
2019-02-22T07:01:51.116Z,72.40
2019-02-22T07:02:51.097Z,72.40
2019-02-22T07:03:51.081Z,72.78
2019-02-22T07:04:51.064Z,72.59
2019-02-22T07:05:51.050Z,72.78
2019-02-22T07:06:51.033Z,72.59
2019-02-22T07:07:51.018Z,72.78
2019-02-22T07:08:51.009Z,72.40
2019-02-22T07:09:50.992Z,72.11
2019-02-22T07:10:50.974Z,72.11
2019-02-22T07:11:50.967Z,72.21
2019-02-22T07:12:56.801Z,72.21
2019-02-22T07:13:50.931Z,72.30
2019-02-22T07:14:50.920Z,72.49
2019-02-22T07:15:50.903Z,72.78
2019-02-22T07:16:50.924Z,72.30
2019-02-22T07:17:50.900Z,72.40
2019-02-22T07:18:50.856Z,72.49
2019-02-22T07:19:50.836Z,72.49
2019-02-22T07:20:50.822Z,72.25
2019-02-22T07:21:53.020Z,72.30
2019-02-22T07:22:50.785Z,72.15
2019-02-22T07:23:50.775Z,72.53
2019-02-22T07:24:50.757Z,72.63
2019-02-22T07:25:50.747Z,72.63
2019-02-22T07:26:50.728Z,73.00
2019-02-22T07:27:50.718Z,72.91
2019-02-22T07:28:50.702Z,73.00
2019-02-22T07:29:50.688Z,73.00
2019-02-22T07:30:50.668Z,72.91
2019-02-22T07:31:50.648Z,73.19
2019-02-22T07:32:50.661Z,73.00
2019-02-22T07:33:50.623Z,73.48
2019-02-22T07:34:50.605Z,73.19
2019-02-22T07:35:50.595Z,73.38
2019-02-22T07:36:50.579Z,73.48
2019-02-22T07:37:50.569Z,73.29
2019-02-22T07:38:50.553Z,73.57
2019-02-22T07:39:50.536Z,73.57
2019-02-22T07:40:50.523Z,73.19
2019-02-22T07:41:50.503Z,73.00
2019-02-22T07:42:50.483Z,73.38
2019-02-22T07:43:50.472Z,73.19
2019-02-22T07:44:50.450Z,73.10
2019-02-22T07:45:50.440Z,73.10
2019-02-22T07:46:50.420Z,73.19
2019-02-22T07:47:50.409Z,73.57
2019-02-22T07:48:50.400Z,73.67
2019-02-22T07:49:50.385Z,73.76
2019-02-22T07:50:57.495Z,74.15
2019-02-22T07:51:50.344Z,74.24
2019-02-22T07:52:50.339Z,74.05
2019-02-22T07:53:50.322Z,73.86
2019-02-22T07:54:50.296Z,73.96
2019-02-22T07:55:50.284Z,74.52
2019-02-22T07:56:50.268Z,74.71
2019-02-22T07:57:50.256Z,75.24
2019-02-22T07:58:50.239Z,75.24
2019-02-22T07:59:50.233Z,75.72
2019-02-22T08:00:50.211Z,75.05
2019-02-22T08:01:50.200Z,74.96
2019-02-22T08:02:50.183Z,74.87
2019-02-22T08:03:50.163Z,74.58
2019-02-22T08:04:50.185Z,74.20
2019-02-22T08:05:50.136Z,74.58
2019-02-22T08:06:50.128Z,74.58
2019-02-22T08:07:50.100Z,75.05
2019-02-22T08:08:50.090Z,74.87
2019-02-22T08:09:50.078Z,74.96
2019-02-22T08:10:50.060Z,75.34
2019-02-22T08:11:50.044Z,75.05
2019-02-22T08:12:50.029Z,75.34
2019-02-22T08:13:50.012Z,75.43
2019-02-22T08:14:49.991Z,74.77
2019-02-22T08:15:49.976Z,75.19
2019-02-22T08:16:49.966Z,74.87
2019-02-22T08:17:49.952Z,73.57
2019-02-22T08:19:00.613Z,73.67
2019-02-22T08:19:49.922Z,73.00
2019-02-22T08:20:49.908Z,73.67
2019-02-22T08:21:49.890Z,73.38
2019-02-22T08:22:49.877Z,73.86
2019-02-22T08:23:49.858Z,73.57
2019-02-22T08:24:49.843Z,73.19
2019-02-22T08:25:49.833Z,73.48
2019-02-22T08:26:49.816Z,72.91
2019-02-22T08:27:53.878Z,72.25
2019-02-22T08:28:49.783Z,72.44
2019-02-22T08:29:49.766Z,71.30
2019-02-22T08:30:49.751Z,71.30
2019-02-22T08:31:49.733Z,71.30
2019-02-22T08:32:49.722Z,71.30
2019-02-22T08:33:49.704Z,71.48
2019-02-22T08:34:49.698Z,71.86
2019-02-22T08:35:49.686Z,72.34
2019-02-22T08:36:49.667Z,72.06
2019-02-22T08:37:49.640Z,72.25
2019-02-22T08:38:49.628Z,72.53
2019-02-22T08:39:58.361Z,72.44
2019-02-22T08:40:49.605Z,72.06
2019-02-22T08:41:49.585Z,72.06
2019-02-22T08:42:49.568Z,71.48
2019-02-22T08:43:49.558Z,71.39
2019-02-22T08:44:49.541Z,71.39
2019-02-22T08:45:49.527Z,71.30
2019-02-22T08:46:49.522Z,71.30
2019-02-22T08:47:49.506Z,70.92
2019-02-22T08:48:49.478Z,70.82
2019-02-22T08:49:49.464Z,71.48
2019-02-22T08:50:49.447Z,71.58
2019-02-22T08:51:49.438Z,71.86
2019-02-22T08:52:49.458Z,71.11
2019-02-22T08:53:49.409Z,71.14
2019-02-22T08:54:49.384Z,71.04
2019-02-22T08:55:49.374Z,71.04
2019-02-22T08:56:49.360Z,71.33
2019-02-22T08:57:49.355Z,71.01
2019-02-22T08:58:49.327Z,71.14
2019-02-22T08:59:49.313Z,71.30
2019-02-22T09:00:49.310Z,71.04
2019-02-22T09:01:49.281Z,70.95
2019-02-22T09:02:49.267Z,70.95
2019-02-22T09:03:50.881Z,71.14
2019-02-22T09:04:49.236Z,70.95
2019-02-22T09:05:49.233Z,70.67
2019-02-22T09:06:49.210Z,70.76
2019-02-22T09:07:49.194Z,70.38
2019-02-22T09:08:49.178Z,70.86
2019-02-22T09:09:49.165Z,70.67
2019-02-22T09:11:00.119Z,70.38
2019-02-22T09:11:49.161Z,70.89
2019-02-22T09:12:49.117Z,70.13
2019-02-22T09:13:49.102Z,70.61
2019-02-22T09:14:49.085Z,69.66
2019-02-22T09:15:49.073Z,69.66
2019-02-22T09:16:49.055Z,69.94
2019-02-22T09:17:49.045Z,69.27
2019-02-22T09:18:49.035Z,69.18
2019-02-22T09:19:49.083Z,68.99
2019-02-22T09:20:49.003Z,68.61
2019-02-22T09:21:48.987Z,68.42
2019-02-22T09:22:48.967Z,68.33
2019-02-22T09:23:48.956Z,68.61
2019-02-22T09:24:48.944Z,69.09
2019-02-22T09:25:48.925Z,68.99
2019-02-22T09:26:48.917Z,69.27
2019-02-22T09:27:48.895Z,69.37
2019-02-22T09:28:48.880Z,69.56
2019-02-22T09:29:58.541Z,69.56
2019-02-22T09:30:48.852Z,69.85
2019-02-22T09:31:48.838Z,69.94
2019-02-22T09:32:48.821Z,69.94
2019-02-22T09:33:48.809Z,69.75
2019-02-22T09:34:48.805Z,69.56
2019-02-22T09:35:48.780Z,69.69
2019-02-22T09:36:48.773Z,69.60
2019-02-22T09:37:49.068Z,69.41
2019-02-22T09:38:48.736Z,69.12
2019-02-22T09:39:49.039Z,68.93
2019-02-22T09:40:48.709Z,68.74
2019-02-22T09:41:48.697Z,68.68
2019-02-22T09:42:48.683Z,68.49
2019-02-22T09:43:55.041Z,68.11
2019-02-22T09:44:48.649Z,67.54
2019-02-22T09:45:48.633Z,67.25
2019-02-22T09:46:48.632Z,66.97
2019-02-22T09:47:48.615Z,66.68
2019-02-22T09:48:48.595Z,66.87
2019-02-22T09:49:48.581Z,66.97
2019-02-22T09:50:48.567Z,66.97
2019-02-22T09:51:48.561Z,66.59
2019-02-22T09:52:48.534Z,65.92
2019-02-22T09:53:48.524Z,66.02
2019-02-22T09:54:48.520Z,66.02
2019-02-22T09:55:48.511Z,66.02
2019-02-22T09:56:48.485Z,66.39
2019-02-22T09:57:48.470Z,66.39
2019-02-22T09:58:48.460Z,66.78
2019-02-22T09:59:48.436Z,66.68
2019-02-22T10:00:48.436Z,66.39
2019-02-22T10:01:48.414Z,66.02
2019-02-22T10:02:48.400Z,66.30
2019-02-22T10:03:48.384Z,66.02
2019-02-22T10:04:55.013Z,66.11
2019-02-22T10:05:48.361Z,66.30
2019-02-22T10:06:48.349Z,66.20
2019-02-22T10:07:48.335Z,66.59
2019-02-22T10:08:48.315Z,66.20
2019-02-22T10:09:48.303Z,66.49
2019-02-22T10:10:48.287Z,66.68
2019-02-22T10:11:48.275Z,66.78
2019-02-22T10:12:48.264Z,66.97
2019-02-22T10:13:48.249Z,66.68
2019-02-22T10:14:48.235Z,67.54
2019-02-22T10:15:48.214Z,67.41
2019-02-22T10:16:48.204Z,67.13
2019-02-22T10:17:48.185Z,67.22
2019-02-22T10:18:48.175Z,67.44
2019-02-22T10:19:48.160Z,67.44
2019-02-22T10:20:48.142Z,68.01
2019-02-22T10:21:48.166Z,67.63
2019-02-22T10:22:48.150Z,66.49
2019-02-22T10:23:48.103Z,66.49
2019-02-22T10:24:48.114Z,66.68
2019-02-22T10:25:48.080Z,66.78
2019-02-22T10:26:48.082Z,66.05
2019-02-22T10:27:48.054Z,65.48
2019-02-22T10:28:48.093Z,65.61
2019-02-22T10:29:48.022Z,64.94
2019-02-22T10:30:48.011Z,63.42
2019-02-22T10:31:47.995Z,63.26
2019-02-22T10:32:47.983Z,62.68
2019-02-22T10:33:47.969Z,62.05
2019-02-22T10:34:47.959Z,61.29
2019-02-22T10:35:47.943Z,60.65
2019-02-22T10:36:48.107Z,59.60
2019-02-22T10:37:48.044Z,59.12
2019-02-22T10:38:48.100Z,59.12
2019-02-22T10:39:47.889Z,59.22
2019-02-22T10:40:48.120Z,58.01
2019-02-22T10:41:48.084Z,57.72
2019-02-22T10:42:48.079Z,57.56
2019-02-22T10:43:48.067Z,57.53
2019-02-22T10:44:47.828Z,56.77
2019-02-22T10:45:48.141Z,56.87
2019-02-22T10:46:47.802Z,57.15
2019-02-22T10:47:48.069Z,57.24
2019-02-22T10:48:47.824Z,57.63
2019-02-22T10:49:47.765Z,57.60
2019-02-22T10:50:48.080Z,58.26
2019-02-22T10:51:47.740Z,58.58
2019-02-22T10:52:47.727Z,58.11
2019-02-22T10:53:48.135Z,57.75
2019-02-22T10:54:47.697Z,57.65
2019-02-22T10:55:47.696Z,56.70
2019-02-22T10:56:47.680Z,56.70
2019-02-22T10:57:47.664Z,56.23
2019-02-22T10:58:47.648Z,55.96
2019-02-22T10:59:47.640Z,55.96
2019-02-22T11:00:47.635Z,55.58
2019-02-22T11:01:47.614Z,55.20
2019-02-22T11:02:47.601Z,55.30
2019-02-22T11:03:47.587Z,55.55
2019-02-22T11:04:47.579Z,55.27
2019-02-22T11:05:47.567Z,55.84
2019-02-22T11:06:47.553Z,55.87
2019-02-22T11:07:47.547Z,55.30
2019-02-22T11:08:47.544Z,55.40
2019-02-22T11:09:47.516Z,55.77
2019-02-22T11:10:47.511Z,54.75
2019-02-22T11:11:47.506Z,54.37
2019-02-22T11:12:47.486Z,54.27
2019-02-22T11:13:47.475Z,53.51
2019-02-22T11:14:47.462Z,54.47
2019-02-22T11:15:47.450Z,54.44
2019-02-22T11:16:47.438Z,54.27
2019-02-22T11:17:47.424Z,53.82
2019-02-22T11:18:47.414Z,53.06
2019-02-22T11:19:47.404Z,52.77
2019-02-22T11:20:47.399Z,52.87
2019-02-22T11:21:47.383Z,53.06
2019-02-22T11:22:47.377Z,53.03
2019-02-22T11:23:47.356Z,53.61
2019-02-22T11:24:47.367Z,53.61
2019-02-22T11:25:47.340Z,53.67
2019-02-22T11:26:47.319Z,54.06
2019-02-22T11:27:47.316Z,54.25
2019-02-22T11:28:47.302Z,54.82
2019-02-22T11:29:49.361Z,54.37
2019-02-22T11:30:47.282Z,54.37
2019-02-22T11:31:47.271Z,53.86
2019-02-22T11:32:47.259Z,54.82
2019-02-22T11:33:47.247Z,54.60
2019-02-22T11:34:47.233Z,55.40
2019-02-22T11:35:47.222Z,55.46
2019-02-22T11:36:47.210Z,55.84
2019-02-22T11:37:47.201Z,55.84
2019-02-22T11:38:47.188Z,56.60
2019-02-22T11:39:47.176Z,56.87
2019-02-22T11:40:47.166Z,57.06
2019-02-22T11:41:47.160Z,57.63
2019-02-22T11:42:47.143Z,57.63
2019-02-22T11:43:47.139Z,58.11
2019-02-22T11:44:47.119Z,58.48
2019-02-22T11:45:47.107Z,58.29
2019-02-22T11:46:47.099Z,58.39
2019-02-22T11:47:47.087Z,58.07
2019-02-22T11:48:47.077Z,58.75
2019-02-22T11:49:47.062Z,59.12
2019-02-22T11:50:47.083Z,59.12
2019-02-22T11:51:47.036Z,58.84
2019-02-22T11:52:47.108Z,59.89
2019-02-22T11:53:47.162Z,59.99
2019-02-22T11:54:47.002Z,60.08
2019-02-22T11:55:47.176Z,60.17
2019-02-22T11:56:47.057Z,60.33
2019-02-22T11:57:47.218Z,60.75
2019-02-22T11:58:47.075Z,60.27
2019-02-22T11:59:46.943Z,60.08
2019-02-22T12:00:46.933Z,60.17
2019-02-22T12:01:47.141Z,60.27
2019-02-22T12:02:47.205Z,59.99
2019-02-22T12:03:47.096Z,60.55
2019-02-22T12:04:47.129Z,59.99
2019-02-22T12:05:46.866Z,60.27
2019-02-22T12:06:46.860Z,60.27
2019-02-22T12:07:46.849Z,60.08
2019-02-22T12:08:47.043Z,60.36
2019-02-22T12:09:46.828Z,59.99
2019-02-22T12:10:46.809Z,59.99
2019-02-22T12:11:47.095Z,59.99
2019-02-22T12:12:46.787Z,59.60
2019-02-22T12:13:46.775Z,59.89
2019-02-22T12:14:51.583Z,59.79
2019-02-22T12:15:46.751Z,60.27
2019-02-22T12:16:46.736Z,60.33
2019-02-22T12:17:46.723Z,60.62
2019-02-22T12:18:47.183Z,61.48
2019-02-22T12:19:46.702Z,61.93
2019-02-22T12:20:46.692Z,62.21
2019-02-22T12:21:46.675Z,62.49
2019-02-22T12:22:46.666Z,62.68
2019-02-22T12:23:46.653Z,63.35
2019-02-22T12:24:46.640Z,63.07
2019-02-22T12:25:46.627Z,63.83
2019-02-22T12:26:46.612Z,63.80
2019-02-22T12:27:46.602Z,64.65
2019-02-22T12:28:46.587Z,64.18
2019-02-22T12:29:46.574Z,65.23
2019-02-22T12:30:46.564Z,65.32
2019-02-22T12:31:46.551Z,66.14
2019-02-22T12:32:46.540Z,65.77
2019-02-22T12:33:46.530Z,66.62
2019-02-22T12:34:46.522Z,66.53
2019-02-22T12:35:46.506Z,66.33
2019-02-22T12:36:46.492Z,67.19
2019-02-22T12:37:46.474Z,67.47
2019-02-22T12:38:46.469Z,67.76
2019-02-22T12:39:46.445Z,67.86
2019-02-22T12:40:46.512Z,68.40
2019-02-22T12:41:46.425Z,68.49
2019-02-22T12:42:46.412Z,68.40
2019-02-22T12:43:46.395Z,68.49
2019-02-22T12:44:46.382Z,68.33
2019-02-22T12:45:46.366Z,68.87
2019-02-22T12:46:46.355Z,68.15
2019-02-22T12:47:46.342Z,68.87
2019-02-22T12:48:46.326Z,68.49
2019-02-22T12:49:46.314Z,68.33
2019-02-22T12:50:46.301Z,68.24
2019-02-22T12:51:46.288Z,68.71
2019-02-22T12:52:46.277Z,68.81